createdAt,value
2018-09-06T00:00:13.644Z,77.48
2018-09-06T00:01:13.648Z,77.58
2018-09-06T00:02:13.649Z,77.96
2018-09-06T00:03:13.652Z,77.86
2018-09-06T00:04:13.654Z,78.06
2018-09-06T00:05:13.657Z,77.96
2018-09-06T00:06:13.661Z,78.44
2018-09-06T00:07:13.662Z,78.34
2018-09-06T00:08:13.664Z,77.76
2018-09-06T00:09:13.666Z,78.15
2018-09-06T00:10:13.671Z,77.96
2018-09-06T00:11:13.671Z,77.48
2018-09-06T00:12:13.677Z,77.67
2018-09-06T00:13:13.676Z,78.15
2018-09-06T00:14:13.680Z,78.25
2018-09-06T00:15:13.680Z,78.44
2018-09-06T00:16:13.683Z,78.73
2018-09-06T00:17:13.686Z,79.11
2018-09-06T00:18:13.688Z,79.50
2018-09-06T00:19:13.689Z,79.65
2018-09-06T00:20:13.693Z,79.36
2018-09-06T00:21:13.695Z,79.36
2018-09-06T00:22:13.698Z,80.22
2018-09-06T00:23:13.699Z,79.84
2018-09-06T00:24:13.702Z,80.71
2018-09-06T00:25:13.706Z,79.94
2018-09-06T00:26:13.708Z,80.61
2018-09-06T00:27:13.710Z,80.99
2018-09-06T00:28:13.711Z,80.61
2018-09-06T00:29:13.714Z,80.61
2018-09-06T00:30:13.716Z,80.32
2018-09-06T00:31:13.719Z,80.80
2018-09-06T00:32:13.720Z,80.96
2018-09-06T00:33:13.724Z,80.38
2018-09-06T00:34:13.725Z,80.76
2018-09-06T00:35:13.728Z,80.76
2018-09-06T00:36:13.728Z,80.47
2018-09-06T00:37:13.731Z,80.80
2018-09-06T00:38:13.733Z,80.90
2018-09-06T00:39:13.735Z,81.34
2018-09-06T00:40:13.748Z,81.05
2018-09-06T00:41:13.739Z,81.43
2018-09-06T00:42:13.741Z,81.34
2018-09-06T00:43:13.744Z,81.63
2018-09-06T00:44:13.748Z,82.30
2018-09-06T00:45:13.747Z,82.59
2018-09-06T00:46:13.751Z,83.03
2018-09-06T00:47:13.751Z,83.31
2018-09-06T00:48:13.753Z,83.51
2018-09-06T00:49:13.754Z,83.03
2018-09-06T00:50:13.759Z,83.89
2018-09-06T00:51:13.759Z,83.51
2018-09-06T00:52:13.760Z,83.31
2018-09-06T00:53:13.762Z,83.89
2018-09-06T00:54:13.766Z,83.70
2018-09-06T00:55:13.767Z,84.18
2018-09-06T00:56:13.767Z,84.08
2018-09-06T00:57:13.770Z,84.18
2018-09-06T00:58:13.772Z,83.89
2018-09-06T00:59:13.830Z,83.89
2018-09-06T01:00:13.776Z,85.33
2018-09-06T01:01:13.777Z,85.33
2018-09-06T01:02:13.792Z,85.04
2018-09-06T01:03:13.781Z,84.47
2018-09-06T01:04:13.787Z,85.38
2018-09-06T01:05:13.785Z,85.19
2018-09-06T01:06:13.787Z,85.14
2018-09-06T01:07:13.788Z,84.91
2018-09-06T01:08:13.790Z,84.95
2018-09-06T01:09:13.792Z,84.71
2018-09-06T01:10:13.794Z,85.42
2018-09-06T01:11:13.795Z,85.28
2018-09-06T01:12:13.801Z,85.33
2018-09-06T01:13:13.799Z,85.48
2018-09-06T01:14:13.802Z,85.58
2018-09-06T01:15:13.801Z,85.67
2018-09-06T01:16:13.805Z,85.48
2018-09-06T01:17:13.806Z,85.67
2018-09-06T01:18:13.808Z,85.86
2018-09-06T01:19:13.815Z,85.48
2018-09-06T01:20:13.812Z,85.77
2018-09-06T01:21:13.813Z,85.86
2018-09-06T01:22:13.815Z,85.67
2018-09-06T01:23:13.816Z,85.48
2018-09-06T01:24:13.817Z,85.86
2018-09-06T01:25:13.823Z,85.38
2018-09-06T01:26:13.822Z,85.86
2018-09-06T01:27:13.823Z,85.86
2018-09-06T01:28:13.824Z,86.44
2018-09-06T01:29:13.828Z,86.15
2018-09-06T01:30:13.829Z,86.25
2018-09-06T01:31:13.828Z,86.15
2018-09-06T01:32:13.831Z,86.54
2018-09-06T01:33:13.833Z,86.44
2018-09-06T01:34:13.837Z,86.15
2018-09-06T01:35:13.836Z,86.92
2018-09-06T01:36:13.836Z,86.82
2018-09-06T01:37:13.840Z,87.11
2018-09-06T01:38:13.841Z,87.35
2018-09-06T01:39:13.842Z,87.35
2018-09-06T01:40:13.846Z,87.07
2018-09-06T01:41:13.845Z,87.45
2018-09-06T01:42:13.846Z,87.35
2018-09-06T01:43:13.848Z,87.35
2018-09-06T01:44:13.849Z,87.64
2018-09-06T01:45:13.851Z,87.45
2018-09-06T01:46:13.852Z,87.35
2018-09-06T01:47:13.856Z,87.35
2018-09-06T01:48:13.854Z,87.01
2018-09-06T01:49:13.859Z,87.59
2018-09-06T01:50:13.859Z,87.45
2018-09-06T01:51:13.861Z,87.45
2018-09-06T01:52:13.860Z,87.35
2018-09-06T01:53:13.861Z,87.98
2018-09-06T01:54:13.865Z,87.64
2018-09-06T01:55:13.865Z,88.31
2018-09-06T01:56:13.865Z,87.49
2018-09-06T01:57:13.869Z,87.88
2018-09-06T01:58:13.869Z,87.11
2018-09-06T01:59:13.867Z,87.49
2018-09-06T02:00:13.870Z,87.11
2018-09-06T02:01:13.872Z,87.11
2018-09-06T02:02:13.874Z,86.82
2018-09-06T02:03:13.875Z,87.01
2018-09-06T02:04:13.879Z,85.96
2018-09-06T02:05:13.878Z,86.82
2018-09-06T02:06:13.878Z,87.78
2018-09-06T02:07:13.878Z,88.31
2018-09-06T02:08:13.879Z,87.88
2018-09-06T02:09:13.881Z,88.31
2018-09-06T02:10:13.884Z,88.41
2018-09-06T02:11:13.884Z,88.31
2018-09-06T02:12:13.890Z,88.02
2018-09-06T02:13:13.887Z,88.02
2018-09-06T02:14:13.889Z,88.41
2018-09-06T02:15:13.890Z,88.51
2018-09-06T02:16:13.890Z,88.51
2018-09-06T02:17:13.892Z,88.41
2018-09-06T02:18:13.894Z,88.70
2018-09-06T02:19:13.893Z,89.18
2018-09-06T02:20:13.895Z,89.27
2018-09-06T02:21:13.897Z,89.27
2018-09-06T02:22:13.897Z,89.18
2018-09-06T02:23:13.899Z,89.18
2018-09-06T02:24:13.904Z,89.32
2018-09-06T02:25:13.901Z,89.13
2018-09-06T02:26:13.903Z,87.70
2018-09-06T02:27:13.904Z,86.68
2018-09-06T02:28:13.904Z,85.72
2018-09-06T02:29:13.907Z,85.34
2018-09-06T02:30:13.907Z,85.44
2018-09-06T02:31:13.907Z,84.95
2018-09-06T02:32:13.908Z,84.77
2018-09-06T02:33:13.909Z,84.00
2018-09-06T02:34:13.912Z,84.09
2018-09-06T02:35:13.918Z,83.61
2018-09-06T02:36:13.912Z,84.00
2018-09-06T02:37:13.913Z,83.61
2018-09-06T02:38:13.914Z,83.71
2018-09-06T02:39:13.916Z,83.61
2018-09-06T02:40:13.915Z,83.61
2018-09-06T02:41:13.917Z,84.09
2018-09-06T02:42:13.917Z,83.91
2018-09-06T02:43:13.918Z,84.67
2018-09-06T02:44:13.918Z,84.86
2018-09-06T02:45:13.918Z,84.58
2018-09-06T02:46:13.921Z,84.95
2018-09-06T02:47:13.920Z,84.67
2018-09-06T02:48:13.922Z,85.68
2018-09-06T02:49:13.920Z,85.68
2018-09-06T02:50:13.923Z,85.58
2018-09-06T02:51:13.922Z,86.07
2018-09-06T02:52:13.923Z,86.16
2018-09-06T02:53:13.925Z,85.68
2018-09-06T02:54:13.926Z,85.78
2018-09-06T02:55:13.925Z,85.49
2018-09-06T02:56:13.926Z,86.35
2018-09-06T02:57:13.928Z,85.88
2018-09-06T02:58:13.932Z,85.68
2018-09-06T02:59:13.928Z,86.07
2018-09-06T03:00:13.928Z,86.25
2018-09-06T03:01:13.928Z,86.16
2018-09-06T03:02:13.931Z,86.25
2018-09-06T03:03:13.928Z,85.93
2018-09-06T03:04:13.931Z,86.50
2018-09-06T03:05:13.935Z,86.79
2018-09-06T03:06:13.930Z,86.79
2018-09-06T03:07:13.930Z,87.17
2018-09-06T03:08:13.930Z,87.17
2018-09-06T03:09:13.932Z,86.79
2018-09-06T03:10:13.932Z,87.37
2018-09-06T03:11:13.931Z,86.88
2018-09-06T03:12:13.932Z,86.98
2018-09-06T03:13:13.930Z,87.27
2018-09-06T03:14:13.933Z,87.08
2018-09-06T03:15:13.936Z,87.27
2018-09-06T03:16:13.933Z,87.08
2018-09-06T03:17:13.933Z,87.08
2018-09-06T03:18:13.933Z,87.08
2018-09-06T03:19:13.936Z,87.74
2018-09-06T03:20:13.933Z,87.74
2018-09-06T03:21:13.937Z,87.55
2018-09-06T03:22:13.938Z,87.74
2018-09-06T03:23:13.934Z,88.03
2018-09-06T03:24:13.937Z,88.42
2018-09-06T03:25:13.936Z,88.13
2018-09-06T03:26:13.935Z,88.13
2018-09-06T03:27:13.940Z,88.51
2018-09-06T03:28:13.935Z,88.70
2018-09-06T03:29:13.936Z,88.99
2018-09-06T03:30:13.935Z,89.47
2018-09-06T03:31:13.935Z,89.57
2018-09-06T03:32:13.941Z,90.05
2018-09-06T03:33:13.934Z,89.95
2018-09-06T03:34:13.940Z,89.95
2018-09-06T03:35:13.934Z,90.43
2018-09-06T03:36:13.934Z,90.43
2018-09-06T03:37:13.935Z,90.29
2018-09-06T03:38:13.935Z,90.67
2018-09-06T03:39:13.935Z,90.39
2018-09-06T03:40:13.935Z,91.10
2018-09-06T03:41:13.934Z,91.25
2018-09-06T03:42:13.935Z,91.53
2018-09-06T03:43:13.934Z,91.63
2018-09-06T03:44:13.934Z,91.72
2018-09-06T03:45:13.933Z,91.44
2018-09-06T03:46:13.937Z,91.44
2018-09-06T03:47:13.936Z,92.01
2018-09-06T03:48:13.933Z,92.11
2018-09-06T03:49:13.933Z,92.58
2018-09-06T03:50:13.934Z,92.58
2018-09-06T03:51:13.945Z,91.44
2018-09-06T03:52:13.932Z,92.11
2018-09-06T03:53:13.931Z,91.25
2018-09-06T03:54:13.931Z,91.72
2018-09-06T03:55:13.931Z,91.63
2018-09-06T03:56:13.931Z,92.30
2018-09-06T03:57:13.932Z,91.92
2018-09-06T03:58:13.936Z,92.21
2018-09-06T03:59:13.930Z,92.30
2018-09-06T04:00:13.931Z,91.49
2018-09-06T04:01:13.931Z,91.77
2018-09-06T04:02:13.931Z,91.15
2018-09-06T04:03:13.930Z,91.67
2018-09-06T04:04:13.928Z,91.86
2018-09-06T04:05:13.929Z,91.63
2018-09-06T04:06:13.931Z,92.58
2018-09-06T04:07:13.929Z,92.11
2018-09-06T04:08:13.932Z,92.58
2018-09-06T04:09:13.926Z,92.49
2018-09-06T04:10:13.929Z,92.21
2018-09-06T04:11:13.928Z,92.58
2018-09-06T04:12:13.927Z,92.01
2018-09-06T04:13:13.927Z,92.40
2018-09-06T04:14:13.930Z,92.44
2018-09-06T04:15:13.924Z,92.06
2018-09-06T04:16:13.926Z,92.25
2018-09-06T04:17:13.925Z,92.35
2018-09-06T04:18:13.925Z,92.44
2018-09-06T04:19:13.924Z,92.73
2018-09-06T04:20:13.923Z,91.67
2018-09-06T04:21:13.927Z,91.19
2018-09-06T04:22:13.924Z,91.49
2018-09-06T04:23:13.921Z,91.67
2018-09-06T04:24:13.933Z,91.58
2018-09-06T04:25:13.924Z,91.77
2018-09-06T04:26:13.924Z,91.19
2018-09-06T04:27:13.923Z,91.77
2018-09-06T04:28:13.923Z,91.77
2018-09-06T04:29:13.922Z,91.49
2018-09-06T04:30:13.921Z,92.35
2018-09-06T04:31:13.921Z,92.25
2018-09-06T04:32:13.922Z,92.73
2018-09-06T04:33:13.921Z,92.73
2018-09-06T04:34:13.922Z,92.63
2018-09-06T04:35:13.975Z,91.29
2018-09-06T04:36:13.959Z,91.58
2018-09-06T04:37:13.922Z,91.58
2018-09-06T04:38:13.920Z,92.44
2018-09-06T04:39:13.939Z,92.25
2018-09-06T04:40:13.921Z,91.19
2018-09-06T04:41:13.923Z,91.19
2018-09-06T04:42:13.922Z,91.49
2018-09-06T04:43:13.921Z,92.15
2018-09-06T04:44:13.921Z,92.44
2018-09-06T04:45:13.921Z,92.44
2018-09-06T04:46:13.920Z,92.25
2018-09-06T04:47:13.921Z,92.82
2018-09-06T04:48:13.920Z,92.82
2018-09-06T04:49:13.919Z,93.02
2018-09-06T04:50:13.922Z,92.25
2018-09-06T04:51:13.919Z,91.49
2018-09-06T04:52:13.919Z,91.96
2018-09-06T04:53:13.919Z,91.39
2018-09-06T04:54:13.920Z,91.77
2018-09-06T04:55:13.925Z,91.77
2018-09-06T04:56:13.921Z,91.29
2018-09-06T04:57:13.922Z,91.00
2018-09-06T04:58:13.920Z,90.81
2018-09-06T04:59:13.920Z,91.10
2018-09-06T05:00:13.925Z,91.29
2018-09-06T05:01:13.920Z,91.00
2018-09-06T05:02:13.922Z,91.10
2018-09-06T05:03:13.921Z,90.72
2018-09-06T05:04:13.926Z,90.91
2018-09-06T05:05:13.924Z,90.14
2018-09-06T05:06:13.920Z,90.47
2018-09-06T05:07:13.923Z,90.19
2018-09-06T05:08:13.921Z,90.19
2018-09-06T05:09:13.923Z,90.38
2018-09-06T05:10:13.924Z,89.80
2018-09-06T05:11:13.922Z,89.61
2018-09-06T05:12:13.926Z,90.57
2018-09-06T05:13:13.923Z,90.38
2018-09-06T05:14:13.923Z,90.38
2018-09-06T05:15:13.924Z,90.67
2018-09-06T05:16:13.923Z,90.47
2018-09-06T05:17:13.929Z,90.47
2018-09-06T05:18:13.926Z,90.09
2018-09-06T05:19:13.924Z,90.09
2018-09-06T05:20:13.925Z,90.28
2018-09-06T05:21:13.926Z,90.67
2018-09-06T05:22:13.926Z,90.67
2018-09-06T05:23:13.925Z,90.19
2018-09-06T05:24:13.928Z,90.67
2018-09-06T05:25:13.927Z,90.28
2018-09-06T05:26:13.927Z,89.71
2018-09-06T05:27:13.927Z,89.42
2018-09-06T05:28:13.927Z,89.51
2018-09-06T05:29:13.929Z,89.80
2018-09-06T05:30:13.930Z,89.37
2018-09-06T05:31:13.929Z,89.18
2018-09-06T05:32:13.931Z,89.27
2018-09-06T05:33:13.934Z,88.79
2018-09-06T05:34:13.930Z,88.98
2018-09-06T05:35:14.002Z,88.60
2018-09-06T05:36:13.989Z,88.22
2018-09-06T05:37:13.932Z,88.51
2018-09-06T05:38:13.934Z,88.51
2018-09-06T05:39:13.932Z,88.51
2018-09-06T05:40:13.933Z,88.60
2018-09-06T05:41:13.940Z,88.31
2018-09-06T05:42:13.934Z,88.22
2018-09-06T05:43:13.936Z,88.22
2018-09-06T05:44:13.936Z,88.31
2018-09-06T05:45:13.938Z,88.02
2018-09-06T05:46:13.940Z,88.70
2018-09-06T05:47:13.936Z,88.60
2018-09-06T05:48:13.938Z,88.70
2018-09-06T05:49:13.939Z,89.18
2018-09-06T05:50:13.940Z,88.98
2018-09-06T05:51:13.938Z,89.08
2018-09-06T05:52:13.940Z,89.27
2018-09-06T05:53:13.941Z,89.08
2018-09-06T05:54:13.940Z,88.98
2018-09-06T05:55:13.940Z,88.84
2018-09-06T05:56:13.941Z,88.45
2018-09-06T05:57:13.942Z,88.45
2018-09-06T05:58:13.946Z,88.07
2018-09-06T05:59:13.942Z,87.98
2018-09-06T06:00:13.943Z,87.98
2018-09-06T06:01:13.944Z,87.49
2018-09-06T06:02:13.944Z,87.40
2018-09-06T06:03:13.944Z,87.11
2018-09-06T06:04:13.945Z,86.72
2018-09-06T06:05:13.958Z,86.96
2018-09-06T06:06:13.947Z,86.96
2018-09-06T06:07:13.947Z,86.25
2018-09-06T06:08:13.947Z,87.11
2018-09-06T06:09:13.950Z,86.87
2018-09-06T06:10:13.950Z,86.96
2018-09-06T06:11:13.953Z,87.30
2018-09-06T06:12:13.952Z,88.31
2018-09-06T06:13:13.954Z,88.11
2018-09-06T06:14:13.954Z,88.59
2018-09-06T06:15:13.954Z,89.26
2018-09-06T06:16:13.961Z,90.03
2018-09-06T06:17:13.957Z,91.09
2018-09-06T06:18:13.958Z,91.38
2018-09-06T06:19:13.957Z,91.24
2018-09-06T06:20:13.963Z,92.86
2018-09-06T06:21:13.959Z,93.01
2018-09-06T06:22:14.028Z,93.73
2018-09-06T06:23:13.962Z,93.73
2018-09-06T06:24:13.964Z,94.49
2018-09-06T06:25:13.964Z,95.46
2018-09-06T06:26:13.964Z,94.98
2018-09-06T06:27:13.965Z,95.26
2018-09-06T06:28:13.971Z,95.84
2018-09-06T06:29:13.969Z,96.22
2018-09-06T06:30:13.968Z,96.51
2018-09-06T06:31:13.969Z,97.28
2018-09-06T06:32:13.978Z,97.95
2018-09-06T06:33:13.972Z,97.56
2018-09-06T06:34:13.973Z,97.38
2018-09-06T06:35:13.974Z,97.86
2018-09-06T06:36:13.981Z,96.70
2018-09-06T06:37:13.976Z,96.22
2018-09-06T06:38:13.979Z,95.75
2018-09-06T06:39:13.978Z,96.42
2018-09-06T06:40:13.980Z,96.27
2018-09-06T06:41:13.981Z,94.83
2018-09-06T06:42:13.983Z,94.54
2018-09-06T06:43:13.982Z,91.19
2018-09-06T06:44:13.983Z,91.66
2018-09-06T06:45:13.984Z,91.66
2018-09-06T06:46:13.988Z,90.90
2018-09-06T06:47:13.986Z,89.65
2018-09-06T06:48:13.991Z,89.98
2018-09-06T06:49:13.990Z,90.17
2018-09-06T06:50:14.006Z,90.66
2018-09-06T06:51:13.991Z,91.42
2018-09-06T06:52:13.993Z,91.23
2018-09-06T06:53:13.996Z,91.04
2018-09-06T06:54:13.996Z,92.05
2018-09-06T06:55:13.997Z,91.66
2018-09-06T06:56:13.997Z,91.28
2018-09-06T06:57:14.000Z,90.61
2018-09-06T06:58:14.000Z,90.22
2018-09-06T06:59:14.002Z,90.99
2018-09-06T07:00:14.002Z,90.99
2018-09-06T07:01:14.009Z,90.42
2018-09-06T07:02:14.006Z,91.09
2018-09-06T07:03:14.009Z,91.76
2018-09-06T07:04:14.027Z,91.96
2018-09-06T07:05:14.010Z,93.59
2018-09-06T07:06:14.012Z,93.30
2018-09-06T07:07:14.073Z,93.20
2018-09-06T07:08:14.014Z,92.91
2018-09-06T07:09:14.016Z,94.07
2018-09-06T07:10:14.016Z,94.54
2018-09-06T07:11:14.017Z,93.97
2018-09-06T07:12:14.017Z,93.30
2018-09-06T07:13:14.018Z,94.16
2018-09-06T07:14:14.020Z,94.93
2018-09-06T07:15:14.022Z,95.70
2018-09-06T07:16:14.022Z,96.56
2018-09-06T07:17:14.024Z,97.28
2018-09-06T07:18:14.072Z,97.86
2018-09-06T07:19:14.025Z,98.24
2018-09-06T07:20:14.030Z,98.05
2018-09-06T07:21:14.029Z,98.53
2018-09-06T07:22:14.030Z,98.72
2018-09-06T07:23:14.032Z,98.53
2018-09-06T07:24:14.030Z,99.10
2018-09-06T07:25:14.033Z,99.99
2018-09-06T07:26:14.033Z,99.99
2018-09-06T07:27:14.034Z,99.99
2018-09-06T07:28:14.035Z,99.68
2018-09-06T07:29:14.039Z,99.99
2018-09-06T07:30:14.041Z,98.91
2018-09-06T07:31:14.040Z,99.99
2018-09-06T07:32:14.040Z,99.99
2018-09-06T07:33:14.041Z,99.99
2018-09-06T07:34:14.042Z,99.99
2018-09-06T07:35:14.090Z,99.99
2018-09-06T07:36:14.043Z,99.99
2018-09-06T07:37:14.045Z,99.99
2018-09-06T07:38:14.046Z,99.99
2018-09-06T07:39:14.045Z,99.99
2018-09-06T07:40:14.046Z,99.99
2018-09-06T07:41:14.051Z,99.99
2018-09-06T07:42:14.048Z,99.99
2018-09-06T07:43:14.048Z,99.99
2018-09-06T07:44:14.051Z,99.99
2018-09-06T07:45:14.054Z,99.99
2018-09-06T07:46:14.052Z,99.99
2018-09-06T07:47:14.053Z,99.99
2018-09-06T07:48:14.054Z,99.99
2018-09-06T07:49:14.056Z,99.99
2018-09-06T07:50:14.056Z,99.99
2018-09-06T07:51:14.057Z,99.99
2018-09-06T07:52:14.132Z,99.99
2018-09-06T07:53:14.061Z,99.99
2018-09-06T07:54:14.065Z,99.99
2018-09-06T07:55:14.061Z,99.99
2018-09-06T07:56:14.062Z,99.99
2018-09-06T07:57:14.062Z,99.99
2018-09-06T07:58:14.064Z,99.99
2018-09-06T07:59:14.064Z,99.99
2018-09-06T08:00:14.065Z,99.99
2018-09-06T08:01:14.068Z,99.99
2018-09-06T08:02:14.069Z,99.99
2018-09-06T08:03:14.068Z,99.92
2018-09-06T08:04:14.070Z,97.76
2018-09-06T08:05:14.072Z,99.82
2018-09-06T08:06:14.072Z,99.99
2018-09-06T08:07:14.073Z,99.15
2018-09-06T08:08:14.074Z,98.67
2018-09-06T08:09:14.076Z,99.05
2018-09-06T08:10:14.077Z,98.48
2018-09-06T08:11:14.077Z,99.25
2018-09-06T08:12:14.115Z,99.99
2018-09-06T08:13:14.082Z,99.99
2018-09-06T08:14:14.082Z,99.25
2018-09-06T08:15:14.082Z,99.99
2018-09-06T08:16:14.083Z,99.25
2018-09-06T08:17:14.084Z,99.92
2018-09-06T08:18:14.086Z,99.92
2018-09-06T08:19:14.087Z,99.99
2018-09-06T08:20:14.086Z,96.56
2018-09-06T08:21:14.089Z,97.42
2018-09-06T08:22:14.093Z,97.76
2018-09-06T08:23:14.090Z,95.94
2018-09-06T08:24:14.134Z,95.65
2018-09-06T08:25:14.098Z,95.07
2018-09-06T08:26:14.094Z,95.17
2018-09-06T08:27:14.096Z,95.55
2018-09-06T08:28:14.096Z,96.70
2018-09-06T08:29:14.099Z,96.89
2018-09-06T08:30:14.099Z,98.05
2018-09-06T08:31:14.217Z,96.70
2018-09-06T08:32:14.102Z,97.96
2018-09-06T08:33:14.104Z,97.19
2018-09-06T08:34:14.105Z,96.89
2018-09-06T08:35:14.106Z,95.65
2018-09-06T08:36:14.106Z,96.03
2018-09-06T08:37:14.109Z,95.55
2018-09-06T08:38:14.111Z,95.45
2018-09-06T08:39:14.111Z,94.78
2018-09-06T08:40:14.112Z,95.12
2018-09-06T08:41:14.117Z,94.49
2018-09-06T08:42:14.116Z,94.54
2018-09-06T08:43:14.117Z,94.26
2018-09-06T08:44:14.119Z,93.58
2018-09-06T08:45:14.178Z,93.68
2018-09-06T08:46:14.123Z,93.68
2018-09-06T08:47:14.156Z,95.60
2018-09-06T08:48:14.125Z,96.08
2018-09-06T08:49:14.127Z,94.73
2018-09-06T08:50:14.129Z,95.07
2018-09-06T08:51:14.130Z,95.45
2018-09-06T08:52:14.162Z,91.32
2018-09-06T08:53:14.133Z,90.36
2018-09-06T08:54:14.136Z,90.75
2018-09-06T08:55:14.136Z,91.71
2018-09-06T08:56:14.139Z,92.38
2018-09-06T08:57:14.140Z,92.19
2018-09-06T08:58:14.144Z,91.52
2018-09-06T08:59:14.144Z,91.71
2018-09-06T09:00:14.146Z,89.59
2018-09-06T09:01:14.150Z,90.36
2018-09-06T09:02:14.225Z,90.45
2018-09-06T09:03:14.203Z,93.15
2018-09-06T09:04:14.159Z,92.09
2018-09-06T09:05:14.158Z,92.86
2018-09-06T09:06:14.160Z,95.17
2018-09-06T09:07:14.162Z,93.91
2018-09-06T09:08:14.217Z,92.76
2018-09-06T09:09:14.170Z,93.15
2018-09-06T09:10:14.168Z,92.47
2018-09-06T09:11:14.172Z,93.05
2018-09-06T09:12:14.173Z,92.76
2018-09-06T09:13:14.200Z,91.90
2018-09-06T09:14:14.176Z,91.32
2018-09-06T09:15:14.181Z,90.17
2018-09-06T09:16:14.263Z,90.17
2018-09-06T09:17:14.185Z,91.61
2018-09-06T09:18:14.206Z,90.75
2018-09-06T09:19:14.190Z,90.45
2018-09-06T09:20:14.194Z,91.03
2018-09-06T09:21:14.195Z,90.75
2018-09-06T09:22:14.286Z,91.52
2018-09-06T09:23:14.200Z,91.13
2018-09-06T09:24:14.202Z,91.80
2018-09-06T09:25:14.205Z,93.82
2018-09-06T09:26:14.207Z,93.73
2018-09-06T09:27:14.208Z,93.24
2018-09-06T09:28:14.211Z,92.96
2018-09-06T09:29:14.217Z,93.05
2018-09-06T09:30:14.219Z,95.75
2018-09-06T09:31:14.218Z,97.38
2018-09-06T09:32:14.222Z,97.09
2018-09-06T09:33:14.224Z,96.13
2018-09-06T09:34:14.228Z,96.94
2018-09-06T09:35:14.228Z,98.58
2018-09-06T09:36:14.231Z,96.85
2018-09-06T09:37:14.235Z,98.86
2018-09-06T09:38:14.237Z,99.99
2018-09-06T09:39:14.239Z,99.99
2018-09-06T09:40:14.242Z,99.99
2018-09-06T09:41:14.245Z,99.99
2018-09-06T09:42:14.247Z,99.99
2018-09-06T09:43:14.271Z,99.99
2018-09-06T09:44:14.253Z,99.99
2018-09-06T09:45:14.254Z,99.99
2018-09-06T09:48:15.059Z,99.99
2018-09-06T09:49:15.061Z,99.99
2018-09-06T09:50:55.331Z,99.99
2018-09-06T09:51:55.334Z,99.99
2018-09-06T09:52:55.336Z,99.99
2018-09-06T09:53:55.339Z,99.99
2018-09-06T09:54:55.342Z,99.99
2018-09-06T09:55:55.343Z,99.99
2018-09-06T09:56:55.388Z,99.99
2018-09-06T09:57:55.347Z,99.99
2018-09-06T09:58:55.349Z,99.99
2018-09-06T09:59:55.353Z,99.99
2018-09-06T10:00:55.354Z,99.99
2018-09-06T10:01:55.358Z,99.99
2018-09-06T10:02:55.360Z,99.99
2018-09-06T10:03:55.361Z,99.99
2018-09-06T10:04:55.365Z,99.99
2018-09-06T10:05:55.366Z,99.99
2018-09-06T10:06:55.370Z,99.99
2018-09-06T10:07:55.374Z,99.99
2018-09-06T10:08:55.374Z,99.99
2018-09-06T10:09:55.375Z,99.99
2018-09-06T10:10:55.379Z,99.99
2018-09-06T10:11:55.382Z,99.99
2018-09-06T10:12:55.385Z,99.99
2018-09-06T10:13:55.383Z,99.99
2018-09-06T10:14:55.386Z,99.99
2018-09-06T10:15:55.390Z,99.99
2018-09-06T10:16:55.394Z,99.99
2018-09-06T10:17:55.395Z,99.99
2018-09-06T10:18:55.396Z,99.99
2018-09-06T10:19:55.399Z,99.99
2018-09-06T10:20:55.399Z,99.99
2018-09-06T10:21:55.403Z,99.99
2018-09-06T10:22:55.404Z,99.99
2018-09-06T10:23:55.407Z,99.99
2018-09-06T10:24:55.408Z,99.99
2018-09-06T10:25:55.412Z,99.99
2018-09-06T10:26:55.414Z,99.99
2018-09-06T10:27:55.416Z,99.99
2018-09-06T10:28:55.416Z,99.99
2018-09-06T10:29:55.420Z,99.99
2018-09-06T10:30:55.420Z,99.99
2018-09-06T10:31:55.427Z,99.99
2018-09-06T10:32:55.424Z,99.99
2018-09-06T10:33:55.428Z,99.99
2018-09-06T10:34:55.429Z,99.99
2018-09-06T10:35:55.432Z,99.99
2018-09-06T10:36:55.433Z,99.99
2018-09-06T10:37:55.438Z,99.99
2018-09-06T10:38:55.437Z,99.99
2018-09-06T10:39:55.447Z,99.99
2018-09-06T10:40:55.439Z,99.99
2018-09-06T10:41:55.443Z,99.99
2018-09-06T10:42:55.449Z,99.99
2018-09-06T10:43:55.453Z,99.99
2018-09-06T10:44:55.448Z,99.99
2018-09-06T10:45:55.452Z,99.99
2018-09-06T10:46:55.453Z,99.99
2018-09-06T10:47:55.558Z,99.99
2018-09-06T10:48:55.457Z,99.99
2018-09-06T10:49:55.463Z,99.99
2018-09-06T10:50:55.462Z,99.99
2018-09-06T10:51:55.463Z,99.99
2018-09-06T10:52:55.463Z,99.99
2018-09-06T10:53:55.468Z,99.99
2018-09-06T10:54:55.470Z,99.99
2018-09-06T10:55:55.471Z,99.99
2018-09-06T10:56:55.472Z,99.99
2018-09-06T10:57:55.474Z,99.99
2018-09-06T10:58:55.477Z,99.99
2018-09-06T10:59:55.479Z,99.99
2018-09-06T11:00:55.481Z,99.99
2018-09-06T11:01:55.482Z,99.99
2018-09-06T11:02:55.491Z,99.99
2018-09-06T11:03:55.494Z,99.99
2018-09-06T11:04:55.492Z,99.99
2018-09-06T11:05:55.491Z,99.99
2018-09-06T11:06:55.495Z,99.99
2018-09-06T11:07:55.527Z,99.99
2018-09-06T11:08:55.498Z,99.99
2018-09-06T11:09:55.499Z,99.99
2018-09-06T11:10:55.502Z,99.99
2018-09-06T11:11:55.504Z,99.99
2018-09-06T11:12:55.505Z,99.99
2018-09-06T11:13:55.509Z,99.99
2018-09-06T11:14:55.597Z,99.99
2018-09-06T11:15:55.512Z,99.99
2018-09-06T11:16:55.516Z,99.99
2018-09-06T11:17:55.547Z,99.99
2018-09-06T11:18:55.520Z,99.99
2018-09-06T11:19:55.525Z,99.99
2018-09-06T11:20:55.530Z,99.99
2018-09-06T11:21:55.611Z,99.99
2018-09-06T11:22:55.527Z,99.99
2018-09-06T11:23:55.531Z,99.99
2018-09-06T11:24:55.531Z,99.99
2018-09-06T11:25:55.534Z,99.99
2018-09-06T11:26:55.537Z,99.99
2018-09-06T11:27:55.632Z,99.99
2018-09-06T11:28:55.540Z,99.99
2018-09-06T11:29:55.544Z,99.99
2018-09-06T11:30:55.546Z,99.99
2018-09-06T11:31:55.554Z,99.99
2018-09-06T11:32:55.552Z,99.99
2018-09-06T11:33:55.553Z,99.99
2018-09-06T11:34:55.556Z,99.99
2018-09-06T11:35:55.558Z,99.99
2018-09-06T11:36:55.560Z,99.99
2018-09-06T11:37:55.562Z,99.99
2018-09-06T11:38:55.564Z,99.99
2018-09-06T11:39:55.592Z,99.99
2018-09-06T11:40:55.570Z,99.99
2018-09-06T11:41:55.572Z,99.99
2018-09-06T11:42:55.574Z,99.99
2018-09-06T11:43:55.579Z,99.99
2018-09-06T11:44:55.578Z,99.99
2018-09-06T11:45:55.610Z,99.99
2018-09-06T11:46:55.689Z,99.99
2018-09-06T11:47:55.634Z,99.99
2018-09-06T11:48:55.588Z,99.99
2018-09-06T11:49:55.590Z,99.99
2018-09-06T11:50:55.595Z,99.99
2018-09-06T11:51:55.597Z,99.99
2018-09-06T11:52:55.597Z,99.99
2018-09-06T11:53:55.600Z,99.99
2018-09-06T11:54:55.603Z,99.99
2018-09-06T11:55:55.604Z,99.99
2018-09-06T11:56:55.606Z,99.99
2018-09-06T11:57:55.610Z,99.99
2018-09-06T11:58:55.611Z,99.99
2018-09-06T11:59:55.616Z,99.99
2018-09-06T12:00:55.647Z,99.99
2018-09-06T12:01:55.630Z,99.99
2018-09-06T12:02:55.621Z,99.99
2018-09-06T12:03:55.625Z,99.99
2018-09-06T12:04:55.627Z,99.99
2018-09-06T12:05:55.628Z,99.99
2018-09-06T12:06:55.631Z,99.99
2018-09-06T12:07:55.635Z,99.99
2018-09-06T12:08:55.636Z,99.99
2018-09-06T12:09:55.639Z,99.99
2018-09-06T12:10:55.653Z,99.99
2018-09-06T12:11:55.645Z,99.99
2018-09-06T12:12:55.646Z,99.99
2018-09-06T12:13:55.648Z,99.99
2018-09-06T12:14:55.658Z,99.99
2018-09-06T12:15:55.654Z,99.99
2018-09-06T12:16:55.655Z,99.99
2018-09-06T12:17:55.659Z,99.99
2018-09-06T12:18:55.661Z,99.99
2018-09-06T12:19:55.666Z,99.99
2018-09-06T12:20:55.666Z,99.99
2018-09-06T12:21:55.670Z,99.99
2018-09-06T12:22:55.671Z,99.99
2018-09-06T12:23:55.675Z,99.99
2018-09-06T12:24:55.675Z,99.99
2018-09-06T12:25:55.679Z,99.99
2018-09-06T12:26:55.683Z,99.99
2018-09-06T12:27:55.684Z,99.99
2018-09-06T12:28:55.685Z,99.99
2018-09-06T12:29:55.689Z,99.99
2018-09-06T12:30:55.691Z,99.99
2018-09-06T12:31:55.694Z,99.99
2018-09-06T12:32:55.733Z,99.99
2018-09-06T12:33:55.699Z,99.99
2018-09-06T12:34:55.701Z,99.99
2018-09-06T12:35:55.704Z,99.99
2018-09-06T12:36:55.704Z,99.99
2018-09-06T12:37:55.708Z,99.99
2018-09-06T12:38:55.711Z,99.99
2018-09-06T12:39:55.716Z,99.99
2018-09-06T12:40:55.718Z,99.99
2018-09-06T12:41:55.718Z,99.99
2018-09-06T12:42:55.720Z,99.99
2018-09-06T12:43:55.724Z,99.99
2018-09-06T12:44:55.726Z,99.99
2018-09-06T12:45:55.728Z,99.99
2018-09-06T12:46:55.729Z,99.99
2018-09-06T12:47:55.733Z,99.99
2018-09-06T12:48:55.734Z,99.99
2018-09-06T12:49:55.738Z,99.99
2018-09-06T12:50:55.739Z,99.99
2018-09-06T12:51:55.742Z,99.99
2018-09-06T12:52:55.745Z,99.99
2018-09-06T12:53:55.748Z,99.99
2018-09-06T12:54:55.749Z,99.99